Terminal Aerodrome Forecast
Issued by NWS Quad Cities IA IL

Home | Current Version | Previous Version | Text Only | Print | Product List | Glossary On
Versions: 1 2 3 4 5 6 7 8 9 10 11 12 13 14 15 16 17 18
000
FTUS43 KDVN 271500 AAB
TAFMLI
TAF AMD
KMLI 271528Z 2715/2812 02007KT P6SM OVC015
     FM272200 05006KT P6SM OVC025
     FM280200 14007KT P6SM SCT250=

USA.gov is the U.S. government's official web portal to all federal, state and local government web resources and services.